Irish Sea — WDB5555 — position and weather

sailwx.info

Track history (hours):
 
Tides and Currents Weather Stations Pressure Air Temp Water Temp Dewpoint Dewpoint Depression Visibility Wind Speed Wind Dir Waves Ship Positions

Irish Sea

Owner: Kirby Offshore Marine, LLC, Staten Island, NY. More information available from US FCC via Universal Licensing System and Coast Guard Vessel Documentation Center.

Last reported at 2015-Jul-01 04:22 UTC. Time now 2015-Jul-01 04:50 UTC.
Position N 40°33' W 074°14'.

Length 156 m; draft 6.8 m.

Type: Ship (hazmat cat B). MMSI: 366910920.

Date/timePositionNaut miles runAvg speedWind from/ knotsBaromVisibWave heightAir tempDewpointWater temp
2015-Jul-01 04:22N 40°33' W 074°14'0 0.0
2015-Jul-01 03:30N 40°33' W 074°14'3 3.2
2015-Jul-01 02:34N 40°36' W 074°12'3 3.2
2015-Jul-01 01:33N 40°39' W 074°10'0 0.0
2015-Jul-01 00:33N 40°39' W 074°10'0 0.0
2015-Jun-30 23:33N 40°39' W 074°10'3 2.5
2015-Jun-30 22:32N 40°37' W 074°12'0 0.4
2015-Jun-30 21:24N 40°37' W 074°12'2 2.5
2015-Jun-30 20:30N 40°38' W 074°10'0 0.0
2015-Jun-30 19:27N 40°38' W 074°10'0 0.0
2015-Jun-30 18:33N 40°38' W 074°10'0 0.0
2015-Jun-30 17:33N 40°38' W 074°10'2 2.0
2015-Jun-30 16:31N 40°37' W 074°12'4 1.9
2015-Jun-30 14:14N 40°33' W 074°14'4 4.5
2015-Jun-30 13:17N 40°37' W 074°12'4 6.0
2015-Jun-30 12:33N 40°39' W 074°07'3 2.9
2015-Jun-30 11:32N 40°39' W 074°03'0 0.0
2015-Jun-30 10:34N 40°39' W 074°03'0 0.1
2015-Jun-30 09:34N 40°39' W 074°03'0 0.2
2015-Jun-30 08:33N 40°39' W 074°03'0 0.0
2015-Jun-30 07:34N 40°39' W 074°03'3 3.4
2015-Jun-30 06:34N 40°36' W 074°02'6 5.7
2015-Jun-30 05:34N 40°31' W 073°58'6 5.8
2015-Jun-30 04:33N 40°27' W 073°53'8 7.5
2015-Jun-30 03:33N 40°19' W 073°53'8 7.4
2015-Jun-30 02:30N 40°12' W 073°54'22 7.4
2015-Jun-29 23:29N 39°50' W 073°57'7 7.2
2015-Jun-29 22:33N 39°43' W 073°59'7 7.1
2015-Jun-29 21:31N 39°36' W 074°04'7 7.1
2015-Jun-29 20:33N 39°30' W 074°08'54 7.4
2015-Jun-29 13:10N 38°49' W 074°54'5 7.6
2015-Jun-29 12:33N 38°48' W 074°59'7 6.9
2015-Jun-29 11:33N 38°54' W 075°05'7 6.6
2015-Jun-29 10:32N 39°00' W 075°08'46 7.6
2015-Jun-29 04:30N 39°42' W 075°31'7 7.3
2015-Jun-29 03:33N 39°48' W 075°26'6 6.3
2015-Jun-29 02:33N 39°51' W 075°18'2 1.8
2015-Jun-29 01:33N 39°51' W 075°16'0 0.0
2015-Jun-29 00:33N 39°51' W 075°16'0 0.0
2015-Jun-28 23:33N 39°51' W 075°16'0 0.0
2015-Jun-28 22:33N 39°51' W 075°16'0 0.0
2015-Jun-28 21:33N 39°51' W 075°16'0 0.0
2015-Jun-28 20:33N 39°51' W 075°16'0 0.0
2015-Jun-28 19:33N 39°51' W 075°16'0 0.0
2015-Jun-28 18:33N 39°51' W 075°16'0 0.0
2015-Jun-28 17:33N 39°51' W 075°16'0 0.0
2015-Jun-28 16:33N 39°51' W 075°16'0 0.0
2015-Jun-28 15:33N 39°51' W 075°16'0 0.0
2015-Jun-28 14:33N 39°51' W 075°16'0 0.0
2015-Jun-28 13:33N 39°51' W 075°16'0 0.0
2015-Jun-28 12:33N 39°51' W 075°16'0 0.0
2015-Jun-28 11:33N 39°51' W 075°16'0 0.0
2015-Jun-28 10:33N 39°51' W 075°16'0 0.0
2015-Jun-28 09:33N 39°51' W 075°16'0 0.0
2015-Jun-28 08:33N 39°51' W 075°16'0 0.0
2015-Jun-28 07:33N 39°51' W 075°16'0 0.0
2015-Jun-28 06:33N 39°51' W 075°16'0 0.0
2015-Jun-28 05:33N 39°51' W 075°16'0 0.0
2015-Jun-28 04:33N 39°51' W 075°16'0 0.0
2015-Jun-28 03:33N 39°51' W 075°16'0 0.0
2015-Jun-28 02:33N 39°51' W 075°16'0 0.0
2015-Jun-28 01:32N 39°51' W 075°16'0 0.0
2015-Jun-28 00:32N 39°51' W 075°16'0 0.0
2015-Jun-27 23:32N 39°51' W 075°16'1 0.8
2015-Jun-27 22:33N 39°51' W 075°15'1 1.0
2015-Jun-27 21:31N 39°51' W 075°14'0 0.1
2015-Jun-27 20:31N 39°51' W 075°14'0 0.0
2015-Jun-27 19:31N 39°51' W 075°14'0 0.0
2015-Jun-27 18:31N 39°51' W 075°14'0 0.0
2015-Jun-27 17:31N 39°51' W 075°14'0 0.0
2015-Jun-27 16:31N 39°51' W 075°14'0 0.1
2015-Jun-27 15:31N 39°51' W 075°14'0 0.2
2015-Jun-27 14:31N 39°51' W 075°14'0 0.0
2015-Jun-27 13:31N 39°51' W 075°14'0 0.0
2015-Jun-27 12:31N 39°51' W 075°14'0 0.0
2015-Jun-27 11:31N 39°52' W 075°14'5 5.1
2015-Jun-27 10:33N 39°51' W 075°20'1010.3
2015-Jun-27 09:33N 39°44' W 075°30'53 8.3
2015-Jun-27 03:11N 38°55' W 075°05'5 8.2
2015-Jun-27 02:33N 38°50' W 075°02'59 8.3
2015-Jun-26 19:29N 39°31' W 074°08'8 9.1
2015-Jun-26 18:33N 39°38' W 074°03'9 9.1
2015-Jun-26 17:33N 39°46' W 073°58'45 8.9
2015-Jun-26 12:29N 40°31' W 073°59'910.1
2015-Jun-26 11:33N 40°40' W 074°03'9 9.4
2015-Jun-26 10:33N 40°47' W 073°55'1 0.6
2015-Jun-26 09:33N 40°48' W 073°54'0 0.0
2015-Jun-26 08:33N 40°48' W 073°54'3 0.2
2015-Jun-25 14:33N 40°46' W 073°57'5 5.2
2015-Jun-25 13:33N 40°41' W 074°01'2 2.4
2015-Jun-25 12:33N 40°39' W 074°03'0 0.1
2015-Jun-25 11:33N 40°39' W 074°03'0 0.0
2015-Jun-25 10:33N 40°39' W 074°03'0 0.2
2015-Jun-25 09:33N 40°39' W 074°03'1 0.9
2015-Jun-25 08:33N 40°39' W 074°03'8 7.7
2015-Jun-25 07:33N 40°31' W 074°00'38 7.2
2015-Jun-25 02:21N 39°54' W 073°57'6 7.8
2015-Jun-25 01:33N 39°48' W 073°57'8 7.6
2015-Jun-25 00:33N 39°40' W 074°01'8 7.7
2015-Jun-24 23:33N 39°34' W 074°06'60 7.5
2015-Jun-24 15:33N 38°49' W 074°56'6 5.9
2015-Jun-24 14:33N 38°51' W 075°03'8 7.6
2015-Jun-24 13:32N 38°58' W 075°07'43 2.7
2015-Jun-23 21:33N 39°35' W 075°35'0 0.0
2015-Jun-23 20:33N 39°35' W 075°35'0 0.0
2015-Jun-23 19:33N 39°35' W 075°35'0 0.0
2015-Jun-23 19:03N 39°35' W 075°35'24 1.0
2015-Jun-22 19:33N 39°52' W 075°13'0 0.0
2015-Jun-22 18:33N 39°52' W 075°13'0 0.1
2015-Jun-22 17:33N 39°52' W 075°13'0 0.1
2015-Jun-22 16:33N 39°52' W 075°13'0 0.0
2015-Jun-22 15:33N 39°52' W 075°13'0 0.0
2015-Jun-22 14:33N 39°52' W 075°13'0 0.0
2015-Jun-22 13:33N 39°52' W 075°13'0 0.0
2015-Jun-22 12:33N 39°52' W 075°13'0 0.0
2015-Jun-22 11:33N 39°52' W 075°13'0 0.1
2015-Jun-22 10:33N 39°52' W 075°13'0 0.0
2015-Jun-22 09:33N 39°52' W 075°13'0 0.0
2015-Jun-22 08:33N 39°52' W 075°13'0 0.0
2015-Jun-22 07:33N 39°52' W 075°13'0 0.0
2015-Jun-22 06:33N 39°52' W 075°13'0 0.0
2015-Jun-22 05:32N 39°52' W 075°13'0 0.1
2015-Jun-22 04:32N 39°52' W 075°13'0 0.1
2015-Jun-22 03:32N 39°52' W 075°13'0 0.0
2015-Jun-22 02:32N 39°52' W 075°13'0 0.0
2015-Jun-22 01:32N 39°52' W 075°13'0 0.0
2015-Jun-22 00:32N 39°52' W 075°13'0 0.2
2015-Jun-21 23:32N 39°52' W 075°13'0 0.1
2015-Jun-21 22:32N 39°52' W 075°13'0 0.0
2015-Jun-21 21:32N 39°52' W 075°13'0 0.0
2015-Jun-21 20:32N 39°52' W 075°13'0 0.0
2015-Jun-21 19:32N 39°52' W 075°13'0 0.0
2015-Jun-21 18:32N 39°52' W 075°13'0 0.0
2015-Jun-21 17:32N 39°52' W 075°13'0 0.1
2015-Jun-21 16:32N 39°52' W 075°13'0 0.0
2015-Jun-21 15:32N 39°52' W 075°13'0 0.0
2015-Jun-21 14:32N 39°52' W 075°13'0 0.0
2015-Jun-21 13:32N 39°52' W 075°13'0 0.1
2015-Jun-21 12:32N 39°52' W 075°13'0 0.0
2015-Jun-21 11:32N 39°52' W 075°13'0 0.2
2015-Jun-21 10:32N 39°52' W 075°13'0 0.0
2015-Jun-21 09:32N 39°52' W 075°13'0 0.0
2015-Jun-21 08:32N 39°52' W 075°13'0 0.0
2015-Jun-21 07:32N 39°52' W 075°13'0 0.0
2015-Jun-21 06:32N 39°52' W 075°13'0 0.0
2015-Jun-21 05:32N 39°52' W 075°13'0 0.1
2015-Jun-21 04:32N 39°52' W 075°13'  
Track history (hours):
 
Tides and Currents Weather Stations Pressure Air Temp Water Temp Dewpoint Dewpoint Depression Visibility Wind Speed Wind Dir Waves Ship Positions

Irish Sea

Owner: Kirby Offshore Marine, LLC, Staten Island, NY. More information available from US FCC via Universal Licensing System and Coast Guard Vessel Documentation Center.

Last reported at 2015-Jul-01 04:22 UTC. Time now 2015-Jul-01 04:50 UTC.
Position N 40°33' W 074°14'.

Length 156 m; draft 6.8 m.

Type: Ship (hazmat cat B). MMSI: 366910920.

Date/timePositionNaut miles runAvg speedWind from/ knotsBaromVisibWave heightAir tempDewpointWater temp
2015-Jul-01 04:22N 40°33' W 074°14'0 0.0
2015-Jul-01 03:30N 40°33' W 074°14'3 3.2
2015-Jul-01 02:34N 40°36' W 074°12'3 3.2
2015-Jul-01 01:33N 40°39' W 074°10'0 0.0
2015-Jul-01 00:33N 40°39' W 074°10'0 0.0
2015-Jun-30 23:33N 40°39' W 074°10'3 2.5
2015-Jun-30 22:32N 40°37' W 074°12'0 0.4
2015-Jun-30 21:24N 40°37' W 074°12'2 2.5
2015-Jun-30 20:30N 40°38' W 074°10'0 0.0
2015-Jun-30 19:27N 40°38' W 074°10'0 0.0
2015-Jun-30 18:33N 40°38' W 074°10'0 0.0
2015-Jun-30 17:33N 40°38' W 074°10'2 2.0
2015-Jun-30 16:31N 40°37' W 074°12'4 1.9
2015-Jun-30 14:14N 40°33' W 074°14'4 4.5
2015-Jun-30 13:17N 40°37' W 074°12'4 6.0
2015-Jun-30 12:33N 40°39' W 074°07'3 2.9
2015-Jun-30 11:32N 40°39' W 074°03'0 0.0
2015-Jun-30 10:34N 40°39' W 074°03'0 0.1
2015-Jun-30 09:34N 40°39' W 074°03'0 0.2
2015-Jun-30 08:33N 40°39' W 074°03'0 0.0
2015-Jun-30 07:34N 40°39' W 074°03'3 3.4
2015-Jun-30 06:34N 40°36' W 074°02'6 5.7
2015-Jun-30 05:34N 40°31' W 073°58'6 5.8
2015-Jun-30 04:33N 40°27' W 073°53'8 7.5
2015-Jun-30 03:33N 40°19' W 073°53'8 7.4
2015-Jun-30 02:30N 40°12' W 073°54'22 7.4
2015-Jun-29 23:29N 39°50' W 073°57'7 7.2
2015-Jun-29 22:33N 39°43' W 073°59'7 7.1
2015-Jun-29 21:31N 39°36' W 074°04'7 7.1
2015-Jun-29 20:33N 39°30' W 074°08'54 7.4
2015-Jun-29 13:10N 38°49' W 074°54'5 7.6
2015-Jun-29 12:33N 38°48' W 074°59'7 6.9
2015-Jun-29 11:33N 38°54' W 075°05'7 6.6
2015-Jun-29 10:32N 39°00' W 075°08'46 7.6
2015-Jun-29 04:30N 39°42' W 075°31'7 7.3
2015-Jun-29 03:33N 39°48' W 075°26'6 6.3
2015-Jun-29 02:33N 39°51' W 075°18'2 1.8
2015-Jun-29 01:33N 39°51' W 075°16'0 0.0
2015-Jun-29 00:33N 39°51' W 075°16'0 0.0
2015-Jun-28 23:33N 39°51' W 075°16'0 0.0
2015-Jun-28 22:33N 39°51' W 075°16'0 0.0
2015-Jun-28 21:33N 39°51' W 075°16'0 0.0
2015-Jun-28 20:33N 39°51' W 075°16'0 0.0
2015-Jun-28 19:33N 39°51' W 075°16'0 0.0
2015-Jun-28 18:33N 39°51' W 075°16'0 0.0
2015-Jun-28 17:33N 39°51' W 075°16'0 0.0
2015-Jun-28 16:33N 39°51' W 075°16'0 0.0
2015-Jun-28 15:33N 39°51' W 075°16'0 0.0
2015-Jun-28 14:33N 39°51' W 075°16'0 0.0
2015-Jun-28 13:33N 39°51' W 075°16'0 0.0
2015-Jun-28 12:33N 39°51' W 075°16'0 0.0
2015-Jun-28 11:33N 39°51' W 075°16'0 0.0
2015-Jun-28 10:33N 39°51' W 075°16'0 0.0
2015-Jun-28 09:33N 39°51' W 075°16'0 0.0
2015-Jun-28 08:33N 39°51' W 075°16'0 0.0
2015-Jun-28 07:33N 39°51' W 075°16'0 0.0
2015-Jun-28 06:33N 39°51' W 075°16'0 0.0
2015-Jun-28 05:33N 39°51' W 075°16'0 0.0
2015-Jun-28 04:33N 39°51' W 075°16'0 0.0
2015-Jun-28 03:33N 39°51' W 075°16'0 0.0
2015-Jun-28 02:33N 39°51' W 075°16'0 0.0
2015-Jun-28 01:32N 39°51' W 075°16'0 0.0
2015-Jun-28 00:32N 39°51' W 075°16'0 0.0
2015-Jun-27 23:32N 39°51' W 075°16'1 0.8
2015-Jun-27 22:33N 39°51' W 075°15'1 1.0
2015-Jun-27 21:31N 39°51' W 075°14'0 0.1
2015-Jun-27 20:31N 39°51' W 075°14'0 0.0
2015-Jun-27 19:31N 39°51' W 075°14'0 0.0
2015-Jun-27 18:31N 39°51' W 075°14'0 0.0
2015-Jun-27 17:31N 39°51' W 075°14'0 0.0
2015-Jun-27 16:31N 39°51' W 075°14'0 0.1
2015-Jun-27 15:31N 39°51' W 075°14'0 0.2
2015-Jun-27 14:31N 39°51' W 075°14'0 0.0
2015-Jun-27 13:31N 39°51' W 075°14'0 0.0
2015-Jun-27 12:31N 39°51' W 075°14'0 0.0
2015-Jun-27 11:31N 39°52' W 075°14'5 5.1
2015-Jun-27 10:33N 39°51' W 075°20'1010.3
2015-Jun-27 09:33N 39°44' W 075°30'53 8.3
2015-Jun-27 03:11N 38°55' W 075°05'5 8.2
2015-Jun-27 02:33N 38°50' W 075°02'59 8.3
2015-Jun-26 19:29N 39°31' W 074°08'8 9.1
2015-Jun-26 18:33N 39°38' W 074°03'9 9.1
2015-Jun-26 17:33N 39°46' W 073°58'45 8.9
2015-Jun-26 12:29N 40°31' W 073°59'910.1
2015-Jun-26 11:33N 40°40' W 074°03'9 9.4
2015-Jun-26 10:33N 40°47' W 073°55'1 0.6
2015-Jun-26 09:33N 40°48' W 073°54'0 0.0
2015-Jun-26 08:33N 40°48' W 073°54'3 0.2
2015-Jun-25 14:33N 40°46' W 073°57'5 5.2
2015-Jun-25 13:33N 40°41' W 074°01'2 2.4
2015-Jun-25 12:33N 40°39' W 074°03'0 0.1
2015-Jun-25 11:33N 40°39' W 074°03'0 0.0
2015-Jun-25 10:33N 40°39' W 074°03'0 0.2
2015-Jun-25 09:33N 40°39' W 074°03'1 0.9
2015-Jun-25 08:33N 40°39' W 074°03'8 7.7
2015-Jun-25 07:33N 40°31' W 074°00'38 7.2
2015-Jun-25 02:21N 39°54' W 073°57'6 7.8
2015-Jun-25 01:33N 39°48' W 073°57'8 7.6
2015-Jun-25 00:33N 39°40' W 074°01'8 7.7
2015-Jun-24 23:33N 39°34' W 074°06'60 7.5
2015-Jun-24 15:33N 38°49' W 074°56'6 5.9
2015-Jun-24 14:33N 38°51' W 075°03'8 7.6
2015-Jun-24 13:32N 38°58' W 075°07'43 2.7
2015-Jun-23 21:33N 39°35' W 075°35'0 0.0
2015-Jun-23 20:33N 39°35' W 075°35'0 0.0
2015-Jun-23 19:33N 39°35' W 075°35'0 0.0
2015-Jun-23 19:03N 39°35' W 075°35'24 1.0
2015-Jun-22 19:33N 39°52' W 075°13'0 0.0
2015-Jun-22 18:33N 39°52' W 075°13'0 0.1
2015-Jun-22 17:33N 39°52' W 075°13'0 0.1
2015-Jun-22 16:33N 39°52' W 075°13'0 0.0
2015-Jun-22 15:33N 39°52' W 075°13'0 0.0
2015-Jun-22 14:33N 39°52' W 075°13'0 0.0
2015-Jun-22 13:33N 39°52' W 075°13'0 0.0
2015-Jun-22 12:33N 39°52' W 075°13'0 0.0
2015-Jun-22 11:33N 39°52' W 075°13'0 0.1
2015-Jun-22 10:33N 39°52' W 075°13'0 0.0
2015-Jun-22 09:33N 39°52' W 075°13'0 0.0
2015-Jun-22 08:33N 39°52' W 075°13'0 0.0
2015-Jun-22 07:33N 39°52' W 075°13'0 0.0
2015-Jun-22 06:33N 39°52' W 075°13'0 0.0
2015-Jun-22 05:32N 39°52' W 075°13'0 0.1
2015-Jun-22 04:32N 39°52' W 075°13'0 0.1
2015-Jun-22 03:32N 39°52' W 075°13'0 0.0
2015-Jun-22 02:32N 39°52' W 075°13'0 0.0
2015-Jun-22 01:32N 39°52' W 075°13'0 0.0
2015-Jun-22 00:32N 39°52' W 075°13'0 0.2
2015-Jun-21 23:32N 39°52' W 075°13'0 0.1
2015-Jun-21 22:32N 39°52' W 075°13'0 0.0
2015-Jun-21 21:32N 39°52' W 075°13'0 0.0
2015-Jun-21 20:32N 39°52' W 075°13'0 0.0
2015-Jun-21 19:32N 39°52' W 075°13'0 0.0
2015-Jun-21 18:32N 39°52' W 075°13'0 0.0
2015-Jun-21 17:32N 39°52' W 075°13'0 0.1
2015-Jun-21 16:32N 39°52' W 075°13'0 0.0
2015-Jun-21 15:32N 39°52' W 075°13'0 0.0
2015-Jun-21 14:32N 39°52' W 075°13'0 0.0
2015-Jun-21 13:32N 39°52' W 075°13'0 0.1
2015-Jun-21 12:32N 39°52' W 075°13'0 0.0
2015-Jun-21 11:32N 39°52' W 075°13'0 0.2
2015-Jun-21 10:32N 39°52' W 075°13'0 0.0
2015-Jun-21 09:32N 39°52' W 075°13'0 0.0
2015-Jun-21 08:32N 39°52' W 075°13'0 0.0
2015-Jun-21 07:32N 39°52' W 075°13'0 0.0
2015-Jun-21 06:32N 39°52' W 075°13'0 0.0
2015-Jun-21 05:32N 39°52' W 075°13'0 0.1
2015-Jun-21 04:32N 39°52' W 075°13'  

Dump ship's entire track history